createdAt,value
2018-01-14T00:00:52.127Z,98222
2018-01-14T00:03:20.298Z,98217
2018-01-14T00:05:48.479Z,98218
2018-01-14T00:08:16.655Z,98224
2018-01-14T00:10:44.823Z,98218
2018-01-14T00:13:12.992Z,98221
2018-01-14T00:15:41.187Z,98217
2018-01-14T00:18:09.345Z,98224
2018-01-14T00:20:37.524Z,98221
2018-01-14T00:23:05.696Z,98215
2018-01-14T00:25:33.894Z,98216
2018-01-14T00:28:02.066Z,98216
2018-01-14T00:30:30.229Z,98214
2018-01-14T00:32:58.406Z,98211
2018-01-14T00:35:27.406Z,98213
2018-01-14T00:37:55.566Z,98212
2018-01-14T00:40:23.739Z,98216
2018-01-14T00:42:51.967Z,98209
2018-01-14T00:45:20.102Z,98214
2018-01-14T00:47:48.263Z,98209
2018-01-14T00:50:16.461Z,98213
2018-01-14T00:52:44.623Z,98213
2018-01-14T00:55:12.803Z,98210
2018-01-14T00:57:40.969Z,98210
2018-01-14T01:00:09.210Z,98208
2018-01-14T01:02:37.374Z,98210
2018-01-14T01:05:06.301Z,98210
2018-01-14T01:07:34.472Z,98211
2018-01-14T01:10:02.652Z,98215
2018-01-14T01:12:30.811Z,98214
2018-01-14T01:14:58.980Z,98208
2018-01-14T01:17:27.153Z,98208
2018-01-14T01:19:55.334Z,98206
2018-01-14T01:22:23.518Z,98207
2018-01-14T01:24:51.684Z,98203
2018-01-14T01:27:19.847Z,98206
2018-01-14T01:29:48.017Z,98200
2018-01-14T01:32:16.196Z,98197
2018-01-14T01:34:44.358Z,98196
2018-01-14T01:37:13.297Z,98192
2018-01-14T01:39:41.464Z,98196
2018-01-14T01:42:09.634Z,98191
2018-01-14T01:44:37.792Z,98196
2018-01-14T01:47:05.957Z,98189
2018-01-14T01:49:34.155Z,98188
2018-01-14T01:52:02.330Z,98188
2018-01-14T01:54:30.485Z,98189
2018-01-14T01:56:58.655Z,98184
2018-01-14T01:59:26.826Z,98187
2018-01-14T02:01:55.773Z,98189
2018-01-14T02:04:23.937Z,98190
2018-01-14T02:06:52.133Z,98185
2018-01-14T02:09:20.308Z,98186
2018-01-14T02:11:48.476Z,98183
2018-01-14T02:14:16.645Z,98182
2018-01-14T02:16:44.808Z,98175
2018-01-14T02:19:12.963Z,98182
2018-01-14T02:21:41.157Z,98177
2018-01-14T02:24:09.315Z,98170
2018-01-14T02:26:37.471Z,98170
2018-01-14T02:29:05.643Z,98169
2018-01-14T02:31:33.823Z,98167
2018-01-14T02:34:01.992Z,98166
2018-01-14T02:36:30.192Z,98170
2018-01-14T02:38:58.408Z,98173
2018-01-14T02:41:26.577Z,98173
2018-01-14T02:43:54.744Z,98167
2018-01-14T02:46:22.970Z,98170
2018-01-14T02:48:51.152Z,98164
2018-01-14T02:51:19.351Z,98168
2018-01-14T02:53:47.574Z,98163
2018-01-14T02:56:16.520Z,98166
2018-01-14T02:58:44.717Z,98168
2018-01-14T03:01:12.977Z,98163
2018-01-14T03:03:41.161Z,98160
2018-01-14T03:06:09.378Z,98162
2018-01-14T03:08:37.556Z,98162
2018-01-14T03:11:05.728Z,98158
2018-01-14T03:13:33.891Z,98156
2018-01-14T03:16:02.845Z,98150
2018-01-14T03:18:31.024Z,98154
2018-01-14T03:20:59.192Z,98152
2018-01-14T03:23:27.394Z,98161
2018-01-14T03:25:55.583Z,98161
2018-01-14T03:28:24.521Z,98153
2018-01-14T03:30:52.692Z,98157
2018-01-14T03:33:20.869Z,98157
2018-01-14T03:35:49.092Z,98149
2018-01-14T03:38:18.024Z,98154
2018-01-14T03:40:46.242Z,98153
2018-01-14T03:43:14.410Z,98146
2018-01-14T03:45:42.574Z,98148
2018-01-14T03:48:10.745Z,98150
2018-01-14T03:50:38.945Z,98146
2018-01-14T03:53:07.124Z,98154
2018-01-14T03:55:35.294Z,98149
2018-01-14T03:58:03.465Z,98148
2018-01-14T04:00:31.642Z,98151
2018-01-14T04:02:59.826Z,98154
2018-01-14T04:05:28.814Z,98155
2018-01-14T04:07:56.990Z,98155
2018-01-14T04:10:25.161Z,98159
2018-01-14T04:12:53.366Z,98159
2018-01-14T04:15:21.533Z,98159
2018-01-14T04:17:50.469Z,98158
2018-01-14T04:20:18.637Z,98161
2018-01-14T04:22:46.822Z,98164
2018-01-14T04:25:14.985Z,98158
2018-01-14T04:27:43.182Z,98158
2018-01-14T04:30:11.357Z,98159
2018-01-14T04:32:39.542Z,98153
2018-01-14T04:35:07.741Z,98160
2018-01-14T04:37:36.719Z,98161
2018-01-14T04:40:04.904Z,98159
2018-01-14T04:42:33.843Z,98164
2018-01-14T04:45:02.129Z,98168
2018-01-14T04:47:30.316Z,98169
2018-01-14T04:49:58.562Z,98161
2018-01-14T04:52:26.720Z,98162
2018-01-14T04:54:55.128Z,98160
2018-01-14T04:57:23.300Z,98167
2018-01-14T04:59:51.474Z,98166
2018-01-14T05:02:19.757Z,98168
2018-01-14T05:04:47.953Z,98163
2018-01-14T05:07:16.158Z,98166
2018-01-14T05:09:45.102Z,98166
2018-01-14T05:12:13.336Z,98163
2018-01-14T05:14:42.262Z,98161
2018-01-14T05:17:10.487Z,98163
2018-01-14T05:19:38.685Z,98161
2018-01-14T05:22:07.677Z,98163
2018-01-14T05:24:36.622Z,98165
2018-01-14T05:27:04.849Z,98167
2018-01-14T05:29:33.033Z,98173
2018-01-14T05:32:01.288Z,98177
2018-01-14T05:34:30.269Z,98171
2018-01-14T05:36:58.435Z,98167
2018-01-14T05:39:26.593Z,98178
2018-01-14T05:41:54.808Z,98184
2018-01-14T05:44:23.838Z,98178
2018-01-14T05:46:52.031Z,98181
2018-01-14T05:49:20.239Z,98188
2018-01-14T05:51:49.240Z,98186
2018-01-14T05:54:18.214Z,98184
2018-01-14T05:56:46.409Z,98188
2018-01-14T05:59:15.356Z,98188
2018-01-14T06:01:43.518Z,98187
2018-01-14T06:04:11.691Z,98188
2018-01-14T06:06:40.000Z,98187
2018-01-14T06:09:08.202Z,98191
2018-01-14T06:11:37.157Z,98194
2018-01-14T06:14:05.339Z,98189
2018-01-14T06:16:33.558Z,98190
2018-01-14T06:19:01.787Z,98187
2018-01-14T06:21:29.980Z,98186
2018-01-14T06:23:58.141Z,98193
2018-01-14T06:26:26.306Z,98193
2018-01-14T06:28:54.469Z,98192
2018-01-14T06:31:22.678Z,98196
2018-01-14T06:33:50.919Z,98193
2018-01-14T06:36:19.102Z,98193
2018-01-14T06:38:47.311Z,98197
2018-01-14T06:41:15.487Z,98194
2018-01-14T06:43:44.461Z,98192
2018-01-14T06:46:12.673Z,98194
2018-01-14T06:48:41.611Z,98197
2018-01-14T06:51:09.846Z,98199
2018-01-14T06:53:38.026Z,98199
2018-01-14T06:56:06.227Z,98198
2018-01-14T06:58:34.457Z,98201
2018-01-14T07:01:03.404Z,98195
2018-01-14T07:03:31.645Z,98199
2018-01-14T07:05:59.827Z,98199
2018-01-14T07:08:28.068Z,98202
2018-01-14T07:10:56.224Z,98202
2018-01-14T07:13:24.382Z,98202
2018-01-14T07:15:52.563Z,98204
2018-01-14T07:18:20.723Z,98203
2018-01-14T07:20:48.898Z,98210
2018-01-14T07:23:17.103Z,98211
2018-01-14T07:25:45.274Z,98213
2018-01-14T07:28:13.457Z,98214
2018-01-14T07:30:41.666Z,98212
2018-01-14T07:33:09.868Z,98204
2018-01-14T07:35:38.045Z,98211
2018-01-14T07:38:06.202Z,98214
2018-01-14T07:40:34.391Z,98216
2018-01-14T07:43:02.597Z,98222
2018-01-14T07:45:30.787Z,98226
2018-01-14T07:47:58.970Z,98232
2018-01-14T07:50:27.922Z,98231
2018-01-14T07:52:56.121Z,98236
2018-01-14T07:55:24.283Z,98240
2018-01-14T07:57:52.445Z,98238
2018-01-14T08:00:20.612Z,98241
2018-01-14T08:02:48.782Z,98242
2018-01-14T08:05:16.962Z,98239
2018-01-14T08:07:45.177Z,98239
2018-01-14T08:10:14.125Z,98242
2018-01-14T08:12:42.378Z,98241
2018-01-14T08:15:10.545Z,98244
2018-01-14T08:17:38.734Z,98248
2018-01-14T08:20:06.926Z,98249
2018-01-14T08:22:35.259Z,98249
2018-01-14T08:25:04.219Z,98249
2018-01-14T08:27:32.413Z,98262
2018-01-14T08:30:00.590Z,98269
2018-01-14T08:32:29.581Z,98269
2018-01-14T08:34:57.753Z,98272
2018-01-14T08:37:25.922Z,98274
2018-01-14T08:39:54.364Z,98279
2018-01-14T08:42:22.528Z,98284
2018-01-14T08:44:50.706Z,98277
2018-01-14T08:47:19.270Z,98280
2018-01-14T08:49:47.450Z,98292
2018-01-14T08:52:15.649Z,98289
2018-01-14T08:54:43.864Z,98290
2018-01-14T08:57:12.038Z,98296
2018-01-14T08:59:40.318Z,98297
2018-01-14T09:02:08.487Z,98301
2018-01-14T09:04:37.649Z,98300
2018-01-14T09:07:05.818Z,98301
2018-01-14T09:09:33.992Z,98303
2018-01-14T09:12:02.169Z,98308
2018-01-14T09:14:30.347Z,98314
2018-01-14T09:16:58.526Z,98324
2018-01-14T09:19:26.707Z,98319
2018-01-14T09:21:54.975Z,98319
2018-01-14T09:24:23.149Z,98326
2018-01-14T09:26:52.093Z,98325
2018-01-14T09:29:21.048Z,98327
2018-01-14T09:31:49.229Z,98331
2018-01-14T09:34:17.435Z,98324
2018-01-14T09:36:46.395Z,98323
2018-01-14T09:39:14.620Z,98322
2018-01-14T09:41:42.790Z,98322
2018-01-14T09:44:11.769Z,98324
2018-01-14T09:46:40.774Z,98324
2018-01-14T09:49:09.760Z,98323
2018-01-14T09:51:38.733Z,98321
2018-01-14T09:54:06.901Z,98322
2018-01-14T09:56:35.084Z,98329
2018-01-14T09:59:03.277Z,98325
2018-01-14T10:01:32.226Z,98325
2018-01-14T10:04:00.409Z,98322
2018-01-14T10:06:28.574Z,98322
2018-01-14T10:08:56.756Z,98321
2018-01-14T10:11:24.949Z,98318
2018-01-14T10:13:53.113Z,98316
2018-01-14T10:16:21.375Z,98314
2018-01-14T10:18:49.538Z,98313
2018-01-14T10:21:17.744Z,98316
2018-01-14T10:23:46.071Z,98313
2018-01-14T10:26:14.242Z,98317
2018-01-14T10:28:42.414Z,98312
2018-01-14T10:31:10.612Z,98313
2018-01-14T10:33:38.795Z,98307
2018-01-14T10:36:06.983Z,98308
2018-01-14T10:38:35.180Z,98305
2018-01-14T10:41:04.242Z,98312
2018-01-14T10:43:32.429Z,98312
2018-01-14T10:46:00.591Z,98314
2018-01-14T10:48:28.785Z,98316
2018-01-14T10:50:56.982Z,98313
2018-01-14T10:53:25.992Z,98312
2018-01-14T10:55:55.261Z,98315
2018-01-14T10:58:23.450Z,98309
2018-01-14T11:00:58.401Z,98306
2018-01-14T11:03:26.598Z,98301
2018-01-14T11:05:54.803Z,98300
2018-01-14T11:08:22.991Z,98300
2018-01-14T11:10:51.213Z,98299
2018-01-14T11:13:19.532Z,98298
2018-01-14T11:15:47.802Z,98296
2018-01-14T11:18:16.010Z,98295
2018-01-14T11:20:44.191Z,98294
2018-01-14T11:23:13.167Z,98290
2018-01-14T11:25:41.361Z,98289
2018-01-14T11:28:10.386Z,98284
2018-01-14T11:30:38.567Z,98290
2018-01-14T11:33:06.756Z,98289
2018-01-14T11:35:34.941Z,98290
2018-01-14T11:51:03.930Z,98286
2018-01-14T11:53:32.129Z,98287
2018-01-14T11:56:00.321Z,98286
2018-01-14T11:58:29.289Z,98285
2018-01-14T12:00:57.469Z,98280
2018-01-14T12:03:25.658Z,98281
2018-01-14T12:05:54.621Z,98279
2018-01-14T12:08:22.937Z,98272
2018-01-14T12:10:51.970Z,98273
2018-01-14T12:13:20.145Z,98277
2018-01-14T12:15:48.489Z,98273
2018-01-14T12:18:17.446Z,98272
2018-01-14T12:20:45.681Z,98272
2018-01-14T12:23:13.851Z,98271
2018-01-14T12:25:42.050Z,98269
2018-01-14T12:28:10.309Z,98270
2018-01-14T12:30:38.493Z,98270
2018-01-14T12:33:08.466Z,98265
2018-01-14T12:35:37.402Z,98264
2018-01-14T12:38:05.605Z,98275
2018-01-14T12:40:33.817Z,98271
2018-01-14T12:43:02.027Z,98276
2018-01-14T12:45:30.204Z,98276
2018-01-14T12:47:58.468Z,98282
2018-01-14T12:50:26.639Z,98273
2018-01-14T12:52:54.805Z,98282
2018-01-14T12:55:23.024Z,98281
2018-01-14T12:57:51.215Z,98273
2018-01-14T13:00:19.387Z,98276
2018-01-14T13:05:06.454Z,98273
2018-01-14T13:07:34.631Z,98274
2018-01-14T13:10:03.587Z,98279
2018-01-14T13:12:31.933Z,98278
2018-01-14T13:15:00.113Z,98279
2018-01-14T13:17:28.290Z,98276
2018-01-14T13:19:56.467Z,98279
2018-01-14T13:22:24.633Z,98274
2018-01-14T13:24:52.813Z,98278
2018-01-14T13:27:21.060Z,98282
2018-01-14T13:29:49.299Z,98287
2018-01-14T13:32:18.248Z,98289
2018-01-14T13:34:46.494Z,98291
2018-01-14T13:37:14.666Z,98290
2018-01-14T13:39:43.599Z,98291
2018-01-14T13:42:11.773Z,98294
2018-01-14T13:44:39.953Z,98298
2018-01-14T13:47:08.134Z,98299
2018-01-14T13:49:36.312Z,98291
2018-01-14T13:52:04.503Z,98290
2018-01-14T13:54:32.717Z,98296
2018-01-14T13:57:01.665Z,98290
2018-01-14T13:59:29.851Z,98297
2018-01-14T14:01:58.811Z,98295
2018-01-14T14:04:26.982Z,98291
2018-01-14T14:06:55.148Z,98291
2018-01-14T14:09:23.321Z,98292
2018-01-14T14:11:51.510Z,98297
2018-01-14T14:14:19.707Z,98292
2018-01-14T14:16:47.885Z,98294
2018-01-14T14:19:16.065Z,98294
2018-01-14T14:21:45.038Z,98297
2018-01-14T14:24:13.215Z,98295
2018-01-14T14:26:41.382Z,98303
2018-01-14T14:29:09.573Z,98296
2018-01-14T14:31:37.739Z,98296
2018-01-14T14:34:05.899Z,98300
2018-01-14T14:36:34.335Z,98301
2018-01-14T14:39:02.520Z,98305
2018-01-14T14:41:30.685Z,98304
2018-01-14T14:43:58.938Z,98303
2018-01-14T14:46:27.889Z,98310
2018-01-14T14:48:56.114Z,98308
2018-01-14T14:51:25.049Z,98309
2018-01-14T14:53:53.233Z,98311
2018-01-14T14:56:22.016Z,98305
2018-01-14T14:58:50.185Z,98310
2018-01-14T15:01:18.362Z,98309
2018-01-14T15:03:46.527Z,98311
2018-01-14T15:06:14.708Z,98313
2018-01-14T15:08:42.890Z,98314
2018-01-14T15:11:11.064Z,98312
2018-01-14T15:13:39.281Z,98320
2018-01-14T15:16:07.452Z,98316
2018-01-14T15:18:35.630Z,98315
2018-01-14T15:21:03.828Z,98313
2018-01-14T15:23:31.999Z,98322
2018-01-14T15:26:00.930Z,98327
2018-01-14T15:28:29.108Z,98328
2018-01-14T15:30:57.284Z,98323
2018-01-14T15:33:25.467Z,98326
2018-01-14T15:35:53.638Z,98328
2018-01-14T15:38:22.582Z,98326
2018-01-14T15:40:51.517Z,98329
2018-01-14T15:43:19.735Z,98331
2018-01-14T15:45:48.675Z,98341
2018-01-14T15:48:16.880Z,98342
2018-01-14T15:50:45.080Z,98343
2018-01-14T15:53:14.040Z,98349
2018-01-14T15:55:42.208Z,98347
2018-01-14T15:58:10.383Z,98346
2018-01-14T16:00:38.559Z,98345
2018-01-14T16:03:06.773Z,98342
2018-01-14T16:05:35.727Z,98341
2018-01-14T16:08:03.902Z,98339
2018-01-14T16:10:32.084Z,98343
2018-01-14T16:13:00.264Z,98336
2018-01-14T16:15:28.442Z,98335
2018-01-14T16:17:56.657Z,98345
2018-01-14T16:20:24.823Z,98355
2018-01-14T16:22:53.767Z,98351
2018-01-14T16:25:21.966Z,98353
2018-01-14T16:27:50.151Z,98347
2018-01-14T16:30:19.104Z,98342
2018-01-14T16:32:47.297Z,98349
2018-01-14T16:35:15.487Z,98349
2018-01-14T16:37:43.678Z,98352
2018-01-14T16:40:12.621Z,98354
2018-01-14T16:42:40.825Z,98345
2018-01-14T16:45:09.002Z,98350
2018-01-14T16:47:37.179Z,98356
2018-01-14T16:50:05.396Z,98361
2018-01-14T16:52:33.587Z,98366
2018-01-14T16:55:02.529Z,98366
2018-01-14T16:57:30.706Z,98362
2018-01-14T16:59:58.919Z,98363
2018-01-14T17:02:27.857Z,98364
2018-01-14T17:04:56.030Z,98365
2018-01-14T17:07:24.213Z,98373
2018-01-14T17:09:52.401Z,98372
2018-01-14T17:12:20.594Z,98368
2018-01-14T17:14:48.821Z,98372
2018-01-14T17:17:17.746Z,98373
2018-01-14T17:19:45.923Z,98374
2018-01-14T17:38:29.144Z,98392
2018-01-14T17:40:57.344Z,98392
2018-01-14T17:43:25.535Z,98393
2018-01-14T17:45:53.732Z,98393
2018-01-14T17:48:21.933Z,98395
2018-01-14T17:50:50.094Z,98395
2018-01-14T17:53:18.270Z,98402
2018-01-14T17:55:46.434Z,98389
2018-01-14T17:58:14.605Z,98394
2018-01-14T18:00:42.804Z,98399
2018-01-14T18:03:11.081Z,98397
2018-01-14T18:05:39.646Z,98393
2018-01-14T18:08:07.862Z,98397
2018-01-14T18:10:36.036Z,98402
2018-01-14T18:13:04.219Z,98397
2018-01-14T18:15:32.410Z,98409
2018-01-14T18:18:00.598Z,98402
2018-01-14T18:20:29.557Z,98403
2018-01-14T18:22:57.777Z,98405
2018-01-14T18:25:26.722Z,98409
2018-01-14T18:27:54.916Z,98414
2018-01-14T18:30:23.100Z,98412
2018-01-14T18:32:51.287Z,98416
2018-01-14T18:35:20.246Z,98417
2018-01-14T18:37:48.447Z,98419
2018-01-14T18:40:17.462Z,98423
2018-01-14T18:42:45.671Z,98425
2018-01-14T18:45:13.858Z,98433
2018-01-14T18:47:42.169Z,98429
2018-01-14T18:50:10.386Z,98427
2018-01-14T18:52:38.565Z,98431
2018-01-14T18:55:06.756Z,98434
2018-01-14T18:57:34.936Z,98437
2018-01-14T19:00:03.180Z,98432
2018-01-14T19:02:31.385Z,98440
2018-01-14T19:04:59.576Z,98436
2018-01-14T19:07:27.767Z,98426
2018-01-14T19:09:55.970Z,98424
2018-01-14T19:12:24.166Z,98429
2018-01-14T19:14:52.341Z,98434
2018-01-14T19:17:20.552Z,98432
2018-01-14T19:19:48.774Z,98437
2018-01-14T19:22:16.970Z,98443
2018-01-14T19:24:45.196Z,98440
2018-01-14T19:27:14.167Z,98441
2018-01-14T19:29:42.335Z,98441
2018-01-14T19:32:11.309Z,98442
2018-01-14T19:34:39.593Z,98449
2018-01-14T19:37:07.769Z,98452
2018-01-14T19:39:35.996Z,98451
2018-01-14T19:42:04.963Z,98447
2018-01-14T19:44:33.177Z,98449
2018-01-14T19:47:01.368Z,98450
2018-01-14T19:49:29.693Z,98452
2018-01-14T19:51:57.973Z,98449
2018-01-14T19:54:26.977Z,98450
2018-01-14T19:56:55.985Z,98454
2018-01-14T19:59:24.922Z,98454
2018-01-14T20:01:53.255Z,98453
2018-01-14T20:04:21.473Z,98454
2018-01-14T20:06:49.678Z,98461
2018-01-14T20:09:17.868Z,98461
2018-01-14T20:11:46.958Z,98468
2018-01-14T20:14:15.197Z,98464
2018-01-14T20:16:43.369Z,98456
2018-01-14T20:19:11.796Z,98456
2018-01-14T20:21:40.181Z,98466
2018-01-14T20:24:08.423Z,98456
2018-01-14T20:26:36.717Z,98453
2018-01-14T20:29:04.956Z,98459
2018-01-14T20:31:33.142Z,98453
2018-01-14T20:34:01.337Z,98453
2018-01-14T20:36:29.705Z,98443
2018-01-14T20:38:58.677Z,98455
2018-01-14T20:41:26.862Z,98453
2018-01-14T20:43:55.056Z,98454
2018-01-14T20:46:23.302Z,98452
2018-01-14T20:48:51.537Z,98452
2018-01-14T20:51:19.881Z,98454
2018-01-14T20:53:48.065Z,98460
2018-01-14T20:56:16.278Z,98457
2018-01-14T20:58:44.448Z,98462
2018-01-14T21:01:13.398Z,98459
2018-01-14T21:03:41.580Z,98461
2018-01-14T21:06:09.750Z,98453
2018-01-14T21:08:37.931Z,98457
2018-01-14T21:11:06.133Z,98460
2018-01-14T21:13:35.076Z,98458
2018-01-14T21:16:03.248Z,98461
2018-01-14T21:18:31.469Z,98460
2018-01-14T21:21:00.408Z,98462
2018-01-14T21:23:28.605Z,98461
2018-01-14T21:25:56.784Z,98464
2018-01-14T21:28:24.948Z,98466
2018-01-14T21:30:53.178Z,98464
2018-01-14T21:33:21.370Z,98464
2018-01-14T21:35:49.543Z,98472
2018-01-14T21:38:17.717Z,98470
2018-01-14T21:40:45.883Z,98470
2018-01-14T21:43:14.090Z,98468
2018-01-14T21:45:42.300Z,98470
2018-01-14T21:48:10.467Z,98474
2018-01-14T21:50:38.644Z,98470
2018-01-14T21:53:06.813Z,98475
2018-01-14T21:55:34.981Z,98471
2018-01-14T21:58:03.153Z,98471
2018-01-14T22:00:31.314Z,98472
2018-01-14T22:03:00.253Z,98471
2018-01-14T22:05:29.247Z,98474
2018-01-14T22:07:58.184Z,98477
2018-01-14T22:10:26.367Z,98476
2018-01-14T22:12:54.546Z,98476
2018-01-14T22:15:22.751Z,98479
2018-01-14T22:17:51.692Z,98473
2018-01-14T22:20:19.860Z,98473
2018-01-14T22:22:48.036Z,98470
2018-01-14T22:25:16.278Z,98471
2018-01-14T22:27:45.208Z,98467
2018-01-14T22:30:13.389Z,98465
2018-01-14T22:32:41.571Z,98464
2018-01-14T22:35:09.738Z,98455
2018-01-14T22:37:37.956Z,98458
2018-01-14T22:40:06.146Z,98458
2018-01-14T22:42:35.077Z,98455
2018-01-14T22:45:03.261Z,98453
2018-01-14T22:47:31.436Z,98452
2018-01-14T22:49:59.608Z,98446
2018-01-14T22:52:27.766Z,98448
2018-01-14T22:54:55.967Z,98449
2018-01-14T22:57:24.142Z,98453
2018-01-14T22:59:52.325Z,98454
2018-01-14T23:02:20.521Z,98456
2018-01-14T23:04:49.462Z,98454
2018-01-14T23:07:17.657Z,98450
2018-01-14T23:09:45.821Z,98449
2018-01-14T23:12:14.003Z,98449
2018-01-14T23:14:47.603Z,98444
2018-01-14T23:17:15.805Z,98450
2018-01-14T23:19:48.017Z,98448
2018-01-14T23:22:16.230Z,98446
2018-01-14T23:24:44.435Z,98446
2018-01-14T23:27:12.608Z,98441
2018-01-14T23:29:40.778Z,98443
2018-01-14T23:32:08.958Z,98440
2018-01-14T23:34:37.132Z,98439
2018-01-14T23:37:06.114Z,98435
2018-01-14T23:39:34.294Z,98432
2018-01-14T23:42:02.474Z,98437
2018-01-14T23:44:30.676Z,98435
2018-01-14T23:46:58.845Z,98434
2018-01-14T23:49:27.030Z,98431
2018-01-14T23:51:55.195Z,98429
2018-01-14T23:54:23.394Z,98432
2018-01-14T23:56:51.567Z,98424
2018-01-14T23:59:19.746Z,98423
